Time;durP1;ratioP1;P1;durP2;ratioP2;P2;SDS_P1;SDS_P2;PMS_P1;PMS_P2;Temp;Humidity;BMP_temperature;BMP_pressure;BME280_temperature;BME280_humidity;BME280_pressure;Samples;Min_cycle;Max_cycle;Signal;HPM_P1;HPM_P2
2022/03/30 00:00:21;;;;;;;;;;;;;;;;;;1048118;28;2549;-69
2022/03/30 00:01:07;;;;;;;;;;;;;;;;;;1048070;28;4024;-70
2022/03/30 00:01:44;;;;;;;;;;;;;;;;;;1047613;28;3826;-70
2022/03/30 00:02:15;;;;;;;;;;;;;;;;;;1049168;28;2444;-71
2022/03/30 00:02:46;;;;;;;;;;;;;;;;;;1049607;28;3805;-71
2022/03/30 00:03:16;;;;;;;;;;;;;;;;;;1043755;28;2858;-70
2022/03/30 00:03:46;;;;;;;;;;;;;;;;;;1044079;28;3816;-70
2022/03/30 00:04:17;;;;;;;;;;;;;;;;;;1045493;28;2248;-69
2022/03/30 00:04:48;;;;;;;;;;;;;;;;;;1045269;28;3835;-69
2022/03/30 00:05:18;;;;;;;;;;;;;;;;;;1049426;28;2262;-70
2022/03/30 00:05:48;;;;;;;;;;;;;;;;;;1048728;28;3798;-70
2022/03/30 00:06:19;;;;;;;;;;;;;;;;;;1048364;28;3136;-69
2022/03/30 00:06:49;;;;;;;;;;;;;;;;;;1048349;28;4000;-70
2022/03/30 00:07:19;;;;;;;;;;;;;;;;;;1049848;28;1831;-70
2022/03/30 00:07:50;;;;;;;;;;;;;;;;;;1049907;28;3885;-70
2022/03/30 00:08:21;;;;;;;;;;;;;;;;;;1048568;28;2249;-70
2022/03/30 00:08:51;;;;;;;;;;;;;;;;;;1049865;28;3816;-70
2022/03/30 00:09:21;;;;;;;;;;;;;;;;;;1048834;28;2752;-70
2022/03/30 00:09:51;;;;;;;;;;;;;;;;;;1047784;28;3770;-70
2022/03/30 00:10:22;;;;;;;;;;;;;;;;;;1047626;28;3067;-70
2022/03/30 00:10:52;;;;;;;;;;;;;;;;;;1045979;28;3809;-70
2022/03/30 00:11:22;;;;;;;;;;;;;;;;;;1046236;28;1819;-70
2022/03/30 00:11:53;;;;;;;;;;;;;;;;;;1040268;28;3866;-71
2022/03/30 00:12:24;;;;;;;;;;;;;;;;;;1044077;28;2041;-70
2022/03/30 00:12:56;;;;;;;;;;;;;;;;;;1047944;28;3790;-71
2022/03/30 00:13:27;;;;;;;;;;;;;;;;;;1047829;28;3171;-70
2022/03/30 00:13:57;;;;;;;;;;;;;;;;;;1049613;28;3793;-71
2022/03/30 00:14:27;;;;;;;;;;;;;;;;;;1047246;28;2366;-70
2022/03/30 00:14:58;;;;;;;;;;;;;;;;;;1049498;28;5054;-70
2022/03/30 00:15:28;;;;;;;;;;;;;;;;;;1048308;28;2012;-71
2022/03/30 00:15:58;;;;;;;;;;;;;;;;;;1049887;28;3782;-71
2022/03/30 00:16:29;;;;;;;;;;;;;;;;;;1049379;28;2571;-70
2022/03/30 00:16:59;;;;;;;;;;;;;;;;;;1049113;28;3807;-70
2022/03/30 00:17:31;;;;;;;;;;;;;;;;;;1048705;28;2089;-69
2022/03/30 00:18:01;;;;;;;;;;;;;;;;;;1048484;28;3781;-71
2022/03/30 00:18:32;;;;;;;;;;;;;;;;;;1048266;28;2646;-70
2022/03/30 00:19:03;;;;;;;;;;;;;;;;;;1048737;28;3806;-70
2022/03/30 00:19:33;;;;;;;;;;;;;;;;;;1043096;28;2057;-71
2022/03/30 00:20:04;;;;;;;;;;;;;;;;;;1042469;28;3832;-69
2022/03/30 00:20:34;;;;;;;;;;;;;;;;;;1043444;28;2577;-70
2022/03/30 00:21:04;;;;;;;;;;;;;;;;;;1048937;28;3728;-70
2022/03/30 00:21:35;;;;;;;;;;;;;;;;;;1048555;28;2224;-70
2022/03/30 00:22:05;;;;;;;;;;;;;;;;;;1047991;28;3741;-71
2022/03/30 00:22:38;;;;;;;;;;;;;;;;;;1048768;28;3939;-70
2022/03/30 00:23:08;;;;;;;;;;;;;;;;;;1047462;28;2574;-69
2022/03/30 00:23:39;;;;;;;;;;;;;;;;;;1047829;28;3805;-70
2022/03/30 00:24:09;;;;;;;;;;;;;;;;;;1048218;28;2106;-70
2022/03/30 00:24:43;;;;;;;;;;;;;;;;;;1048510;28;3864;-71
2022/03/30 00:25:13;;;;;;;;;;;;;;;;;;1048824;28;2179;-70
2022/03/30 00:25:44;;;;;;;;;;;;;;;;;;1047759;28;3835;-69
2022/03/30 00:26:14;;;;;;;;;;;;;;;;;;1049425;28;2224;-70
2022/03/30 00:26:44;;;;;;;;;;;;;;;;;;1049362;28;3845;-69
2022/03/30 00:27:14;;;;;;;;;;;;;;;;;;1048558;28;2208;-70
2022/03/30 00:27:46;;;;;;;;;;;;;;;;;;1050804;28;4053;-70
2022/03/30 00:28:16;;;;;;;;;;;;;;;;;;1049849;28;2508;-70
2022/03/30 00:28:46;;;;;;;;;;;;;;;;;;1051908;28;3822;-70
2022/03/30 00:29:17;;;;;;;;;;;;;;;;;;1046691;28;2220;-69
2022/03/30 00:29:47;;;;;;;;;;;;;;;;;;1048820;28;3872;-70
2022/03/30 00:30:19;;;;;;;;;;;;;;;;;;1048184;28;2735;-70
2022/03/30 00:30:49;;;;;;;;;;;;;;;;;;1047389;28;3805;-69
2022/03/30 00:31:19;;;;;;;;;;;;;;;;;;1049340;28;2754;-70
2022/03/30 00:31:50;;;;;;;;;;;;;;;;;;1048971;28;3924;-70
2022/03/30 00:32:20;;;;;;;;;;;;;;;;;;1048266;28;2199;-70
2022/03/30 00:32:50;;;;;;;;;;;;;;;;;;1047211;28;3805;-70
2022/03/30 00:33:21;;;;;;;;;;;;;;;;;;1048505;28;2273;-70
2022/03/30 00:33:52;;;;;;;;;;;;;;;;;;1048865;28;3808;-70
2022/03/30 00:34:22;;;;;;;;;;;;;;;;;;1049927;28;1919;-70
2022/03/30 00:34:52;;;;;;;;;;;;;;;;;;1048375;28;3798;-70
2022/03/30 00:35:23;;;;;;;;;;;;;;;;;;1044054;28;2364;-70
2022/03/30 00:35:53;;;;;;;;;;;;;;;;;;1044925;28;3895;-70
2022/03/30 00:36:23;;;;;;;;;;;;;;;;;;1047925;28;2460;-70
2022/03/30 00:36:54;;;;;;;;;;;;;;;;;;1047903;28;3991;-70
2022/03/30 00:37:24;;;;;;;;;;;;;;;;;;1048108;28;2098;-71
2022/03/30 00:37:55;;;;;;;;;;;;;;;;;;1048031;28;3804;-70
2022/03/30 00:38:31;;;;;;;;;;;;;;;;;;1050584;28;1876;-69
2022/03/30 00:39:02;;;;;;;;;;;;;;;;;;1045972;28;3812;-70
2022/03/30 00:39:32;;;;;;;;;;;;;;;;;;1046152;28;1773;-71
2022/03/30 00:40:03;;;;;;;;;;;;;;;;;;1049781;28;3797;-69
2022/03/30 00:40:34;;;;;;;;;;;;;;;;;;1048598;28;2539;-70
2022/03/30 00:41:04;;;;;;;;;;;;;;;;;;1049921;28;3778;-70
2022/03/30 00:41:34;;;;;;;;;;;;;;;;;;1049081;28;2188;-69
2022/03/30 00:42:23;;;;;;;;;;;;;;;;;;1049443;28;3767;-70
2022/03/30 00:42:53;;;;;;;;;;;;;;;;;;1049269;28;5254;-71
2022/03/30 00:43:24;;;;;;;;;;;;;;;;;;1048321;28;2670;-70
2022/03/30 00:43:55;;;;;;;;;;;;;;;;;;1044328;28;3821;-71
2022/03/30 00:44:25;;;;;;;;;;;;;;;;;;1044629;28;2577;-70
2022/03/30 00:44:56;;;;;;;;;;;;;;;;;;1048810;28;3809;-70
2022/03/30 00:45:26;;;;;;;;;;;;;;;;;;1046232;28;2853;-71
2022/03/30 00:45:56;;;;;;;;;;;;;;;;;;1048095;28;3886;-70
2022/03/30 00:46:26;;;;;;;;;;;;;;;;;;1048336;28;2359;-71
2022/03/30 00:46:57;;;;;;;;;;;;;;;;;;1049094;28;3789;-70
2022/03/30 00:47:27;;;;;;;;;;;;;;;;;;1048174;28;2133;-70
2022/03/30 00:47:58;;;;;;;;;;;;;;;;;;1047779;28;3829;-70
2022/03/30 00:48:28;;;;;;;;;;;;;;;;;;1049145;28;2252;-70
2022/03/30 00:48:58;;;;;;;;;;;;;;;;;;1044462;28;3820;-70
2022/03/30 00:49:28;;;;;;;;;;;;;;;;;;1044404;28;2243;-70
2022/03/30 00:49:59;;;;;;;;;;;;;;;;;;1045995;28;4254;-71
2022/03/30 00:50:29;;;;;;;;;;;;;;;;;;1048317;28;2510;-70
2022/03/30 00:50:59;;;;;;;;;;;;;;;;;;1050343;28;3764;-70
2022/03/30 00:51:43;;;;;;;;;;;;;;;;;;1051284;28;1975;-70
2022/03/30 00:52:20;;;;;;;;;;;;;;;;;;1049476;28;3746;-70
2022/03/30 00:52:54;;;;;;;;;;;;;;;;;;1046899;28;3887;-70
2022/03/30 00:53:25;;;;;;;;;;;;;;;;;;1045108;28;2248;-70
2022/03/30 00:53:55;;;;;;;;;;;;;;;;;;1045270;28;3761;-70
2022/03/30 00:54:25;;;;;;;;;;;;;;;;;;1044667;28;2159;-71
2022/03/30 00:54:57;;;;;;;;;;;;;;;;;;1048845;28;3967;-70
2022/03/30 00:55:27;;;;;;;;;;;;;;;;;;1048727;28;2191;-71
2022/03/30 00:55:57;;;;;;;;;;;;;;;;;;1048430;28;3816;-70
2022/03/30 00:56:29;;;;;;;;;;;;;;;;;;1052395;28;2151;-71
2022/03/30 00:57:00;;;;;;;;;;;;;;;;;;1052985;28;3817;-70
2022/03/30 00:57:32;;;;;;;;;;;;;;;;;;1048523;28;2227;-70
2022/03/30 00:58:02;;;;;;;;;;;;;;;;;;1042705;28;4010;-71
2022/03/30 00:58:33;;;;;;;;;;;;;;;;;;1043796;28;2587;-70
2022/03/30 00:59:06;;;;;;;;;;;;;;;;;;1043457;28;3745;-70
2022/03/30 00:59:38;;;;;;;;;;;;;;;;;;1048433;28;3825;-70
2022/03/30 01:00:11;;;;;;;;;;;;;;;;;;1052813;28;2966;-70
2022/03/30 01:00:41;;;;;;;;;;;;;;;;;;1048664;28;3844;-70
2022/03/30 01:01:11;;;;;;;;;;;;;;;;;;1049014;28;2044;-70
2022/03/30 01:01:42;;;;;;;;;;;;;;;;;;1048358;28;3847;-70
2022/03/30 01:02:13;;;;;;;;;;;;;;;;;;1045579;28;1908;-70
2022/03/30 01:02:44;;;;;;;;;;;;;;;;;;1037826;28;3802;-71
2022/03/30 01:03:15;;;;;;;;;;;;;;;;;;1045401;28;2267;-70
2022/03/30 01:03:45;;;;;;;;;;;;;;;;;;1044713;28;3799;-70
2022/03/30 01:04:15;;;;;;;;;;;;;;;;;;1048768;28;2256;-70
2022/03/30 01:04:46;;;;;;;;;;;;;;;;;;1053243;28;3857;-69
2022/03/30 01:05:17;;;;;;;;;;;;;;;;;;1048798;28;2233;-70
2022/03/30 01:05:47;;;;;;;;;;;;;;;;;;1045445;28;3842;-70
2022/03/30 01:06:17;;;;;;;;;;;;;;;;;;1039209;28;2123;-70
2022/03/30 01:06:47;;;;;;;;;;;;;;;;;;1038519;28;3835;-71
2022/03/30 01:07:18;;;;;;;;;;;;;;;;;;1043444;28;2206;-70
2022/03/30 01:07:48;;;;;;;;;;;;;;;;;;1049167;28;3786;-70
2022/03/30 01:08:19;;;;;;;;;;;;;;;;;;1053471;28;1813;-70
2022/03/30 01:08:49;;;;;;;;;;;;;;;;;;1048234;28;3808;-70
2022/03/30 01:09:20;;;;;;;;;;;;;;;;;;1048251;28;2199;-70
2022/03/30 01:09:51;;;;;;;;;;;;;;;;;;1044711;28;3915;-70
2022/03/30 01:10:22;;;;;;;;;;;;;;;;;;1043586;28;2702;-70
2022/03/30 01:10:52;;;;;;;;;;;;;;;;;;1047764;28;3796;-70
2022/03/30 01:11:23;;;;;;;;;;;;;;;;;;1048571;28;2128;-69
2022/03/30 01:11:54;;;;;;;;;;;;;;;;;;1053627;28;3801;-70
2022/03/30 01:12:25;;;;;;;;;;;;;;;;;;1052546;28;2014;-69
2022/03/30 01:12:56;;;;;;;;;;;;;;;;;;1051525;28;3805;-70
2022/03/30 01:13:26;;;;;;;;;;;;;;;;;;1052195;28;2855;-69
2022/03/30 01:13:56;;;;;;;;;;;;;;;;;;1052265;28;3793;-69
2022/03/30 01:14:27;;;;;;;;;;;;;;;;;;1051355;28;2114;-69
2022/03/30 01:15:00;;;;;;;;;;;;;;;;;;1054249;28;3811;-69
2022/03/30 01:15:30;;;;;;;;;;;;;;;;;;1051969;28;2105;-70
2022/03/30 01:16:02;;;;;;;;;;;;;;;;;;1052120;28;3866;-69
2022/03/30 01:16:32;;;;;;;;;;;;;;;;;;1053849;28;2399;-70
2022/03/30 01:17:03;;;;;;;;;;;;;;;;;;1052668;28;3842;-69
2022/03/30 01:17:33;;;;;;;;;;;;;;;;;;1052079;28;2105;-70
2022/03/30 01:18:04;;;;;;;;;;;;;;;;;;1049745;28;3820;-70
2022/03/30 01:18:38;;;;;;;;;;;;;;;;;;1048200;28;2384;-69
2022/03/30 01:19:09;;;;;;;;;;;;;;;;;;1048065;28;3898;-70
2022/03/30 01:19:40;;;;;;;;;;;;;;;;;;1047698;28;3772;-69
2022/03/30 01:20:11;;;;;;;;;;;;;;;;;;1053485;28;2255;-70
2022/03/30 01:20:45;;;;;;;;;;;;;;;;;;1052764;28;3801;-70
2022/03/30 01:21:16;;;;;;;;;;;;;;;;;;1053129;28;2134;-69
2022/03/30 01:21:47;;;;;;;;;;;;;;;;;;1053349;28;3785;-69
2022/03/30 01:22:17;;;;;;;;;;;;;;;;;;1051842;28;2047;-70
2022/03/30 01:22:47;;;;;;;;;;;;;;;;;;1054133;28;3946;-71
2022/03/30 01:23:18;;;;;;;;;;;;;;;;;;1053050;28;2176;-69
2022/03/30 01:23:48;;;;;;;;;;;;;;;;;;1053215;28;3865;-69
2022/03/30 01:24:18;;;;;;;;;;;;;;;;;;1053733;28;2106;-70
2022/03/30 01:24:49;;;;;;;;;;;;;;;;;;1053085;28;3797;-69
2022/03/30 01:25:19;;;;;;;;;;;;;;;;;;1044622;28;1823;-69
2022/03/30 01:25:50;;;;;;;;;;;;;;;;;;1044757;28;3809;-70
2022/03/30 01:26:20;;;;;;;;;;;;;;;;;;1044986;28;2282;-69
2022/03/30 01:26:50;;;;;;;;;;;;;;;;;;1044979;28;3825;-71
2022/03/30 01:27:21;;;;;;;;;;;;;;;;;;1048308;28;2167;-70
2022/03/30 01:27:51;;;;;;;;;;;;;;;;;;1047875;28;4104;-70
2022/03/30 01:28:22;;;;;;;;;;;;;;;;;;1047556;28;2227;-70
2022/03/30 01:28:53;;;;;;;;;;;;;;;;;;1048781;28;3793;-70
2022/03/30 01:32:46;;;;;;;;;;;;;;;;;;1052997;28;3841;-71
2022/03/30 01:33:17;;;;;;;;;;;;;;;;;;1053528;28;2067;-69
2022/03/30 01:33:48;;;;;;;;;;;;;;;;;;1053572;28;3873;-70
2022/03/30 01:34:18;;;;;;;;;;;;;;;;;;1053764;28;1678;-71
2022/03/30 01:34:48;;;;;;;;;;;;;;;;;;1052071;28;3993;-70
2022/03/30 01:35:18;;;;;;;;;;;;;;;;;;1046845;28;2189;-69
2022/03/30 01:35:49;;;;;;;;;;;;;;;;;;1049351;28;3774;-70
2022/03/30 01:36:22;;;;;;;;;;;;;;;;;;1044350;28;2048;-71
2022/03/30 01:36:52;;;;;;;;;;;;;;;;;;1045565;28;3805;-70
2022/03/30 01:37:23;;;;;;;;;;;;;;;;;;1047529;28;1711;-69
2022/03/30 01:37:53;;;;;;;;;;;;;;;;;;1048863;28;3795;-70
2022/03/30 01:38:23;;;;;;;;;;;;;;;;;;1051719;28;2392;-70
2022/03/30 01:38:54;;;;;;;;;;;;;;;;;;1053416;28;3914;-70
2022/03/30 01:39:24;;;;;;;;;;;;;;;;;;1051755;28;2551;-70
2022/03/30 01:39:59;;;;;;;;;;;;;;;;;;1049361;28;3829;-69
2022/03/30 01:40:29;;;;;;;;;;;;;;;;;;1053235;28;2229;-70
2022/03/30 01:40:59;;;;;;;;;;;;;;;;;;1050569;28;3801;-70
2022/03/30 01:41:30;;;;;;;;;;;;;;;;;;1053049;28;2419;-70
2022/03/30 01:42:00;;;;;;;;;;;;;;;;;;1052268;28;3797;-71
2022/03/30 01:42:31;;;;;;;;;;;;;;;;;;1052469;28;1951;-70
2022/03/30 01:43:01;;;;;;;;;;;;;;;;;;1048580;28;3933;-70
2022/03/30 01:43:32;;;;;;;;;;;;;;;;;;1048667;28;2499;-70
2022/03/30 01:44:02;;;;;;;;;;;;;;;;;;1048631;28;3826;-70
2022/03/30 01:44:33;;;;;;;;;;;;;;;;;;1049090;28;2193;-70
2022/03/30 01:45:04;;;;;;;;;;;;;;;;;;1053772;28;3748;-70
2022/03/30 01:45:34;;;;;;;;;;;;;;;;;;1052481;28;3080;-70
2022/03/30 01:46:04;;;;;;;;;;;;;;;;;;1052553;28;3765;-70
2022/03/30 01:46:37;;;;;;;;;;;;;;;;;;1053506;28;1953;-71
2022/03/30 01:47:07;;;;;;;;;;;;;;;;;;1052367;28;3609;-69
2022/03/30 01:47:39;;;;;;;;;;;;;;;;;;1052340;28;4006;-70
2022/03/30 01:48:09;;;;;;;;;;;;;;;;;;1048393;28;1786;-70
2022/03/30 01:48:40;;;;;;;;;;;;;;;;;;1043947;28;3831;-70
2022/03/30 01:49:10;;;;;;;;;;;;;;;;;;1043601;28;2104;-70
2022/03/30 01:49:41;;;;;;;;;;;;;;;;;;1043563;28;3822;-69
2022/03/30 01:50:11;;;;;;;;;;;;;;;;;;1043953;28;2487;-69
2022/03/30 01:50:42;;;;;;;;;;;;;;;;;;1049059;28;3862;-69
2022/03/30 01:51:25;;;;;;;;;;;;;;;;;;1049348;28;1612;-70
2022/03/30 01:52:03;;;;;;;;;;;;;;;;;;1047531;28;3886;-69
2022/03/30 01:52:33;;;;;;;;;;;;;;;;;;1045666;28;2262;-70
2022/03/30 01:53:03;;;;;;;;;;;;;;;;;;1045312;28;3766;-70
2022/03/30 01:53:34;;;;;;;;;;;;;;;;;;1045040;28;2206;-69
2022/03/30 01:54:04;;;;;;;;;;;;;;;;;;1044895;28;3732;-70
2022/03/30 01:54:36;;;;;;;;;;;;;;;;;;1045065;28;1928;-70
2022/03/30 01:55:06;;;;;;;;;;;;;;;;;;1044658;28;3775;-70
2022/03/30 01:55:37;;;;;;;;;;;;;;;;;;1045334;28;3808;-69
2022/03/30 01:56:07;;;;;;;;;;;;;;;;;;1043078;28;2723;-70
2022/03/30 01:56:37;;;;;;;;;;;;;;;;;;1043723;28;3820;-70
2022/03/30 01:57:08;;;;;;;;;;;;;;;;;;1049092;28;1627;-69
2022/03/30 01:57:38;;;;;;;;;;;;;;;;;;1046359;28;3820;-70
2022/03/30 01:58:08;;;;;;;;;;;;;;;;;;1048292;28;2013;-70
2022/03/30 01:58:43;;;;;;;;;;;;;;;;;;1047348;28;3825;-69
2022/03/30 01:59:14;;;;;;;;;;;;;;;;;;1044515;28;2069;-70
2022/03/30 01:59:44;;;;;;;;;;;;;;;;;;1044501;28;3889;-69
2022/03/30 02:00:15;;;;;;;;;;;;;;;;;;1045592;28;2163;-71
2022/03/30 02:00:46;;;;;;;;;;;;;;;;;;1045011;28;3847;-70
2022/03/30 02:01:16;;;;;;;;;;;;;;;;;;1043896;28;1863;-69
2022/03/30 02:01:46;;;;;;;;;;;;;;;;;;1043963;28;3922;-70
2022/03/30 02:02:17;;;;;;;;;;;;;;;;;;1044996;28;2580;-69
2022/03/30 02:02:47;;;;;;;;;;;;;;;;;;1044991;28;3984;-69
2022/03/30 02:03:17;;;;;;;;;;;;;;;;;;1045570;28;2149;-70
2022/03/30 02:03:47;;;;;;;;;;;;;;;;;;1045185;28;3802;-69
2022/03/30 02:04:18;;;;;;;;;;;;;;;;;;1043580;28;2198;-70
2022/03/30 02:04:48;;;;;;;;;;;;;;;;;;1044950;28;3877;-70
2022/03/30 02:05:18;;;;;;;;;;;;;;;;;;1044887;28;2140;-70
2022/03/30 02:05:49;;;;;;;;;;;;;;;;;;1044920;28;3801;-69
2022/03/30 02:06:22;;;;;;;;;;;;;;;;;;1044256;28;2137;-69
2022/03/30 02:06:53;;;;;;;;;;;;;;;;;;1044292;28;3806;-69
2022/03/30 02:07:23;;;;;;;;;;;;;;;;;;1043109;28;2580;-70
2022/03/30 02:07:53;;;;;;;;;;;;;;;;;;1043730;28;3958;-68
2022/03/30 02:08:23;;;;;;;;;;;;;;;;;;1044009;28;2297;-69
2022/03/30 02:08:54;;;;;;;;;;;;;;;;;;1044827;28;3833;-69
2022/03/30 02:09:24;;;;;;;;;;;;;;;;;;1044413;28;2113;-69
2022/03/30 02:09:54;;;;;;;;;;;;;;;;;;1043088;28;3797;-69
2022/03/30 02:10:25;;;;;;;;;;;;;;;;;;1043266;28;2238;-69
2022/03/30 02:10:55;;;;;;;;;;;;;;;;;;1044461;28;3829;-70
2022/03/30 02:11:26;;;;;;;;;;;;;;;;;;1043670;28;2221;-69
2022/03/30 02:11:56;;;;;;;;;;;;;;;;;;1044445;28;3807;-70
2022/03/30 02:12:26;;;;;;;;;;;;;;;;;;1041440;28;1887;-69
2022/03/30 02:12:58;;;;;;;;;;;;;;;;;;1042123;28;3795;-70
2022/03/30 02:13:28;;;;;;;;;;;;;;;;;;1040065;28;2289;-70
2022/03/30 02:14:00;;;;;;;;;;;;;;;;;;1046977;28;4013;-69
2022/03/30 02:14:30;;;;;;;;;;;;;;;;;;1043989;28;2102;-69
2022/03/30 02:15:00;;;;;;;;;;;;;;;;;;1044813;28;3747;-70
2022/03/30 02:15:31;;;;;;;;;;;;;;;;;;1044513;28;2141;-70
2022/03/30 02:16:01;;;;;;;;;;;;;;;;;;1044098;28;3786;-70
2022/03/30 02:16:31;;;;;;;;;;;;;;;;;;1042971;28;1991;-69
2022/03/30 02:17:02;;;;;;;;;;;;;;;;;;1045458;28;3775;-71
2022/03/30 02:17:33;;;;;;;;;;;;;;;;;;1043587;28;2159;-70
2022/03/30 02:18:06;;;;;;;;;;;;;;;;;;1045252;28;3874;-70
2022/03/30 02:18:36;;;;;;;;;;;;;;;;;;1043550;28;3883;-70
2022/03/30 02:19:06;;;;;;;;;;;;;;;;;;1044256;28;2407;-70
2022/03/30 02:19:37;;;;;;;;;;;;;;;;;;1043305;28;3966;-70
2022/03/30 02:20:08;;;;;;;;;;;;;;;;;;1044813;28;1875;-70
2022/03/30 02:20:40;;;;;;;;;;;;;;;;;;1042683;28;3857;-69
2022/03/30 02:21:11;;;;;;;;;;;;;;;;;;1043907;28;2355;-70
2022/03/30 02:21:41;;;;;;;;;;;;;;;;;;1042790;28;3801;-69
2022/03/30 02:22:11;;;;;;;;;;;;;;;;;;1042572;28;2523;-69
2022/03/30 02:22:42;;;;;;;;;;;;;;;;;;1044948;28;3818;-69
2022/03/30 02:23:12;;;;;;;;;;;;;;;;;;1044406;28;2195;-69
2022/03/30 02:23:45;;;;;;;;;;;;;;;;;;1044048;28;3835;-69
2022/03/30 02:24:15;;;;;;;;;;;;;;;;;;1044771;28;1849;-69
2022/03/30 02:24:46;;;;;;;;;;;;;;;;;;1044699;28;3823;-70
2022/03/30 02:25:16;;;;;;;;;;;;;;;;;;1044875;28;2632;-69
2022/03/30 02:25:46;;;;;;;;;;;;;;;;;;1048560;28;3833;-70
2022/03/30 02:26:17;;;;;;;;;;;;;;;;;;1043927;28;2545;-69
2022/03/30 02:26:47;;;;;;;;;;;;;;;;;;1044843;28;3815;-69
2022/03/30 02:27:20;;;;;;;;;;;;;;;;;;1044900;28;2104;-70
2022/03/30 02:27:51;;;;;;;;;;;;;;;;;;1048799;28;3801;-69
2022/03/30 02:28:21;;;;;;;;;;;;;;;;;;1047420;28;2344;-69
2022/03/30 02:28:51;;;;;;;;;;;;;;;;;;1048136;28;3779;-70
2022/03/30 02:29:28;;;;;;;;;;;;;;;;;;1047228;28;2192;-70
2022/03/30 02:29:59;;;;;;;;;;;;;;;;;;1044572;28;3795;-69
2022/03/30 02:30:29;;;;;;;;;;;;;;;;;;1044318;28;2348;-70
2022/03/30 02:31:00;;;;;;;;;;;;;;;;;;1045989;28;3838;-70
2022/03/30 02:31:31;;;;;;;;;;;;;;;;;;1044250;28;2722;-69
2022/03/30 02:32:01;;;;;;;;;;;;;;;;;;1044428;28;3798;-70
2022/03/30 02:32:32;;;;;;;;;;;;;;;;;;1044010;28;2244;-70
2022/03/30 02:33:02;;;;;;;;;;;;;;;;;;1044919;28;3783;-69
2022/03/30 02:33:33;;;;;;;;;;;;;;;;;;1043649;28;2490;-70
2022/03/30 02:34:03;;;;;;;;;;;;;;;;;;1043827;28;3781;-69
2022/03/30 02:34:33;;;;;;;;;;;;;;;;;;1044453;28;1643;-69
2022/03/30 02:35:04;;;;;;;;;;;;;;;;;;1045314;28;3777;-69
2022/03/30 02:35:34;;;;;;;;;;;;;;;;;;1040132;28;1886;-69
2022/03/30 02:36:05;;;;;;;;;;;;;;;;;;1039757;28;3801;-69
2022/03/30 02:36:35;;;;;;;;;;;;;;;;;;1038777;28;3841;-70
2022/03/30 02:37:05;;;;;;;;;;;;;;;;;;1038827;28;2273;-69
2022/03/30 02:37:36;;;;;;;;;;;;;;;;;;1042773;28;3790;-70
2022/03/30 02:38:06;;;;;;;;;;;;;;;;;;1045098;28;1921;-69
2022/03/30 02:38:37;;;;;;;;;;;;;;;;;;1046358;28;3838;-70
2022/03/30 02:39:07;;;;;;;;;;;;;;;;;;1050244;28;1663;-70
2022/03/30 02:39:38;;;;;;;;;;;;;;;;;;1046609;28;3794;-69
2022/03/30 02:40:08;;;;;;;;;;;;;;;;;;1043707;28;2174;-70
2022/03/30 02:40:38;;;;;;;;;;;;;;;;;;1041037;28;3831;-70
2022/03/30 02:41:09;;;;;;;;;;;;;;;;;;1041002;28;2356;-70
2022/03/30 02:41:39;;;;;;;;;;;;;;;;;;1040035;28;3897;-69
2022/03/30 02:42:10;;;;;;;;;;;;;;;;;;1044213;28;2160;-69
2022/03/30 02:42:40;;;;;;;;;;;;;;;;;;1044060;28;3789;-69
2022/03/30 02:43:10;;;;;;;;;;;;;;;;;;1044141;28;2269;-70
2022/03/30 02:43:41;;;;;;;;;;;;;;;;;;1043714;28;3794;-70
2022/03/30 02:44:12;;;;;;;;;;;;;;;;;;1044037;28;2383;-68
2022/03/30 02:44:43;;;;;;;;;;;;;;;;;;1039002;28;5172;-70
2022/03/30 02:45:14;;;;;;;;;;;;;;;;;;1039915;28;1710;-70
2022/03/30 02:45:44;;;;;;;;;;;;;;;;;;1038643;28;3809;-70
2022/03/30 02:46:15;;;;;;;;;;;;;;;;;;1035597;28;2531;-70
2022/03/30 02:46:45;;;;;;;;;;;;;;;;;;1040260;28;3802;-69
2022/03/30 02:47:15;;;;;;;;;;;;;;;;;;1041394;28;2145;-69
2022/03/30 02:48:35;;;;;;;;;;;;;;;;;;1043901;28;2466;-70
2022/03/30 02:49:05;;;;;;;;;;;;;;;;;;1045014;28;3550;-70
2022/03/30 02:49:36;;;;;;;;;;;;;;;;;;1046679;28;3813;-69
2022/03/30 02:50:06;;;;;;;;;;;;;;;;;;1047849;28;2102;-70
2022/03/30 02:50:36;;;;;;;;;;;;;;;;;;1047045;28;3857;-69
2022/03/30 02:51:07;;;;;;;;;;;;;;;;;;1043491;28;2175;-69
2022/03/30 02:51:50;;;;;;;;;;;;;;;;;;1039981;28;3867;-70
2022/03/30 02:52:28;;;;;;;;;;;;;;;;;;1038294;28;2792;-69
2022/03/30 02:52:58;;;;;;;;;;;;;;;;;;1043509;28;3770;-69
2022/03/30 02:53:29;;;;;;;;;;;;;;;;;;1044493;28;2620;-70
2022/03/30 02:53:59;;;;;;;;;;;;;;;;;;1045013;28;3777;-70
2022/03/30 02:54:29;;;;;;;;;;;;;;;;;;1045008;28;1771;-70
2022/03/30 02:54:59;;;;;;;;;;;;;;;;;;1042043;28;3767;-69
2022/03/30 02:55:30;;;;;;;;;;;;;;;;;;1039121;28;2441;-70
2022/03/30 02:56:00;;;;;;;;;;;;;;;;;;1040571;28;3866;-70
2022/03/30 02:56:31;;;;;;;;;;;;;;;;;;1045318;28;2252;-70
2022/03/30 02:57:01;;;;;;;;;;;;;;;;;;1042956;28;3801;-69
2022/03/30 02:57:31;;;;;;;;;;;;;;;;;;1044813;28;2686;-70
2022/03/30 02:58:01;;;;;;;;;;;;;;;;;;1044525;28;4226;-69
2022/03/30 02:58:32;;;;;;;;;;;;;;;;;;1047798;28;2229;-70
2022/03/30 02:59:02;;;;;;;;;;;;;;;;;;1048576;28;3771;-69
2022/03/30 02:59:34;;;;;;;;;;;;;;;;;;1047149;28;2381;-70
2022/03/30 03:00:04;;;;;;;;;;;;;;;;;;1048587;28;3797;-70
2022/03/30 03:00:35;;;;;;;;;;;;;;;;;;1046086;28;2409;-70
2022/03/30 03:01:06;;;;;;;;;;;;;;;;;;1046172;28;5086;-69
2022/03/30 03:01:36;;;;;;;;;;;;;;;;;;1044651;28;3828;-70
2022/03/30 03:02:06;;;;;;;;;;;;;;;;;;1045652;28;2264;-69
2022/03/30 03:02:37;;;;;;;;;;;;;;;;;;1047283;28;3820;-70
2022/03/30 03:03:08;;;;;;;;;;;;;;;;;;1047601;28;2179;-69
2022/03/30 03:03:38;;;;;;;;;;;;;;;;;;1047292;28;4797;-70
2022/03/30 03:04:08;;;;;;;;;;;;;;;;;;1041749;28;2377;-70
2022/03/30 03:04:39;;;;;;;;;;;;;;;;;;1042173;28;3790;-70
2022/03/30 03:05:10;;;;;;;;;;;;;;;;;;1042714;28;1683;-70
2022/03/30 03:05:42;;;;;;;;;;;;;;;;;;1044962;28;3796;-69
2022/03/30 03:06:12;;;;;;;;;;;;;;;;;;1046800;28;1973;-69
2022/03/30 03:06:42;;;;;;;;;;;;;;;;;;1044870;28;3937;-70
2022/03/30 03:07:14;;;;;;;;;;;;;;;;;;1045909;28;2536;-70
2022/03/30 03:07:44;;;;;;;;;;;;;;;;;;1044796;28;3800;-70
2022/03/30 03:08:15;;;;;;;;;;;;;;;;;;1045642;28;1442;-69
2022/03/30 03:08:45;;;;;;;;;;;;;;;;;;1046313;28;3896;-69
2022/03/30 03:09:15;;;;;;;;;;;;;;;;;;1045843;28;2120;-70
2022/03/30 03:09:46;;;;;;;;;;;;;;;;;;1045102;28;4706;-69
2022/03/30 03:10:16;;;;;;;;;;;;;;;;;;1044314;28;2566;-70
2022/03/30 03:10:47;;;;;;;;;;;;;;;;;;1043033;28;3796;-69
2022/03/30 03:11:17;;;;;;;;;;;;;;;;;;1045794;28;2367;-70
2022/03/30 03:11:48;;;;;;;;;;;;;;;;;;1045323;28;3839;-70
2022/03/30 03:12:18;;;;;;;;;;;;;;;;;;1044389;28;2503;-70
2022/03/30 03:12:48;;;;;;;;;;;;;;;;;;1046098;28;3800;-70
2022/03/30 03:13:19;;;;;;;;;;;;;;;;;;1044543;28;2135;-70
2022/03/30 03:13:49;;;;;;;;;;;;;;;;;;1044117;28;3882;-68
2022/03/30 03:14:19;;;;;;;;;;;;;;;;;;1044412;28;2066;-69
2022/03/30 03:14:49;;;;;;;;;;;;;;;;;;1045036;28;3784;-70
2022/03/30 03:15:20;;;;;;;;;;;;;;;;;;1042746;28;1826;-70
2022/03/30 03:15:58;;;;;;;;;;;;;;;;;;1037666;28;3758;-70
2022/03/30 03:16:28;;;;;;;;;;;;;;;;;;1041192;28;1856;-69
2022/03/30 03:16:58;;;;;;;;;;;;;;;;;;1042684;28;3791;-70
2022/03/30 03:17:28;;;;;;;;;;;;;;;;;;1045392;28;2132;-69
2022/03/30 03:18:00;;;;;;;;;;;;;;;;;;1045349;28;3807;-70
2022/03/30 03:18:30;;;;;;;;;;;;;;;;;;1044259;28;2549;-70
2022/03/30 03:19:01;;;;;;;;;;;;;;;;;;1045797;28;3961;-70
2022/03/30 03:19:32;;;;;;;;;;;;;;;;;;1044594;28;2986;-69
2022/03/30 03:20:02;;;;;;;;;;;;;;;;;;1045193;28;3901;-69
2022/03/30 03:20:33;;;;;;;;;;;;;;;;;;1045021;28;2099;-69
2022/03/30 03:21:03;;;;;;;;;;;;;;;;;;1042083;28;3760;-70
2022/03/30 03:21:34;;;;;;;;;;;;;;;;;;1037571;28;2058;-69
2022/03/30 03:22:04;;;;;;;;;;;;;;;;;;1037165;28;3759;-70
2022/03/30 03:22:35;;;;;;;;;;;;;;;;;;1040641;28;2532;-70
2022/03/30 03:23:05;;;;;;;;;;;;;;;;;;1037632;28;5032;-69
2022/03/30 03:23:36;;;;;;;;;;;;;;;;;;1039350;28;3839;-69
2022/03/30 03:24:06;;;;;;;;;;;;;;;;;;1040627;28;2874;-69
2022/03/30 03:24:36;;;;;;;;;;;;;;;;;;1039486;28;3901;-70
2022/03/30 03:25:08;;;;;;;;;;;;;;;;;;1046554;28;1696;-70
2022/03/30 03:25:39;;;;;;;;;;;;;;;;;;1044076;28;4444;-70
2022/03/30 03:26:10;;;;;;;;;;;;;;;;;;1045184;28;2176;-71
2022/03/30 03:26:40;;;;;;;;;;;;;;;;;;1044161;28;3823;-70
2022/03/30 03:27:10;;;;;;;;;;;;;;;;;;1045719;28;2154;-70
2022/03/30 03:27:41;;;;;;;;;;;;;;;;;;1043329;28;3824;-70
2022/03/30 03:28:12;;;;;;;;;;;;;;;;;;1049916;28;2027;-70
2022/03/30 03:28:42;;;;;;;;;;;;;;;;;;1047126;28;3820;-70
2022/03/30 03:29:12;;;;;;;;;;;;;;;;;;1049812;28;2456;-70
2022/03/30 03:29:43;;;;;;;;;;;;;;;;;;1047888;28;3866;-70
2022/03/30 03:30:14;;;;;;;;;;;;;;;;;;1045176;28;3321;-69
2022/03/30 03:30:44;;;;;;;;;;;;;;;;;;1044121;28;3808;-70
2022/03/30 03:31:15;;;;;;;;;;;;;;;;;;1045680;28;2429;-69
2022/03/30 03:31:45;;;;;;;;;;;;;;;;;;1043431;28;3870;-69
2022/03/30 03:32:15;;;;;;;;;;;;;;;;;;1046401;28;2091;-70
2022/03/30 03:32:45;;;;;;;;;;;;;;;;;;1046267;28;3991;-70
2022/03/30 03:33:17;;;;;;;;;;;;;;;;;;1046684;28;1910;-69
2022/03/30 03:33:48;;;;;;;;;;;;;;;;;;1044927;28;3797;-69
2022/03/30 03:34:18;;;;;;;;;;;;;;;;;;1045659;28;2540;-70
2022/03/30 03:34:48;;;;;;;;;;;;;;;;;;1044186;28;4703;-68
2022/03/30 03:35:19;;;;;;;;;;;;;;;;;;1045783;28;1697;-70
2022/03/30 03:35:49;;;;;;;;;;;;;;;;;;1045251;28;3844;-70
2022/03/30 03:36:19;;;;;;;;;;;;;;;;;;1045993;28;2011;-70
2022/03/30 03:36:50;;;;;;;;;;;;;;;;;;1044337;28;3795;-70
2022/03/30 03:37:20;;;;;;;;;;;;;;;;;;1042576;28;2135;-70
2022/03/30 03:37:51;;;;;;;;;;;;;;;;;;1033119;28;3826;-69
2022/03/30 03:38:21;;;;;;;;;;;;;;;;;;1034356;28;2238;-70
2022/03/30 03:38:51;;;;;;;;;;;;;;;;;;1037250;28;3805;-70